sensor_id;sensor_type;location;lat;lon;timestamp;P1;durP1;ratioP1;P2;durP2;ratioP2
5343;SDS011;2694;48.950;8.970;2022-11-15T00:01:14;9.30;;;5.00;;
5343;SDS011;2694;48.950;8.970;2022-11-15T00:03:43;7.20;;;4.68;;
5343;SDS011;2694;48.950;8.970;2022-11-15T00:06:12;8.60;;;4.88;;
5343;SDS011;2694;48.950;8.970;2022-11-15T00:08:40;11.43;;;5.55;;
5343;SDS011;2694;48.950;8.970;2022-11-15T00:11:08;10.13;;;4.90;;
5343;SDS011;2694;48.950;8.970;2022-11-15T00:13:37;6.70;;;4.30;;
5343;SDS011;2694;48.950;8.970;2022-11-15T00:16:05;7.65;;;4.40;;
5343;SDS011;2694;48.950;8.970;2022-11-15T00:18:32;5.82;;;4.10;;
5343;SDS011;2694;48.950;8.970;2022-11-15T00:21:03;8.53;;;4.93;;
5343;SDS011;2694;48.950;8.970;2022-11-15T00:23:34;6.32;;;4.28;;
5343;SDS011;2694;48.950;8.970;2022-11-15T00:26:01;6.63;;;4.68;;
5343;SDS011;2694;48.950;8.970;2022-11-15T00:28:28;6.93;;;4.60;;
5343;SDS011;2694;48.950;8.970;2022-11-15T00:30:59;6.53;;;3.95;;
5343;SDS011;2694;48.950;8.970;2022-11-15T00:33:27;7.38;;;4.50;;
5343;SDS011;2694;48.950;8.970;2022-11-15T00:35:59;9.15;;;5.05;;
5343;SDS011;2694;48.950;8.970;2022-11-15T00:38:34;7.47;;;4.75;;
5343;SDS011;2694;48.950;8.970;2022-11-15T00:41:02;6.60;;;4.50;;
5343;SDS011;2694;48.950;8.970;2022-11-15T00:43:31;11.60;;;5.18;;
5343;SDS011;2694;48.950;8.970;2022-11-15T00:45:59;7.87;;;4.70;;
5343;SDS011;2694;48.950;8.970;2022-11-15T00:48:27;9.23;;;4.80;;
5343;SDS011;2694;48.950;8.970;2022-11-15T00:50:54;8.70;;;4.88;;
5343;SDS011;2694;48.950;8.970;2022-11-15T00:53:21;7.82;;;5.00;;
5343;SDS011;2694;48.950;8.970;2022-11-15T00:55:51;8.57;;;4.97;;
5343;SDS011;2694;48.950;8.970;2022-11-15T00:58:18;9.93;;;5.40;;
5343;SDS011;2694;48.950;8.970;2022-11-15T01:00:45;10.98;;;5.50;;
5343;SDS011;2694;48.950;8.970;2022-11-15T01:03:14;8.80;;;5.75;;
5343;SDS011;2694;48.950;8.970;2022-11-15T01:05:41;11.65;;;5.47;;
5343;SDS011;2694;48.950;8.970;2022-11-15T01:08:11;11.10;;;5.07;;
5343;SDS011;2694;48.950;8.970;2022-11-15T01:10:39;8.85;;;5.50;;
5343;SDS011;2694;48.950;8.970;2022-11-15T01:13:08;13.95;;;6.38;;
5343;SDS011;2694;48.950;8.970;2022-11-15T01:15:38;10.57;;;5.82;;
5343;SDS011;2694;48.950;8.970;2022-11-15T01:18:06;8.63;;;5.30;;
5343;SDS011;2694;48.950;8.970;2022-11-15T01:20:33;10.02;;;5.80;;
5343;SDS011;2694;48.950;8.970;2022-11-15T01:23:00;12.15;;;6.50;;
5343;SDS011;2694;48.950;8.970;2022-11-15T01:25:27;12.53;;;6.80;;
5343;SDS011;2694;48.950;8.970;2022-11-15T01:27:55;11.43;;;6.60;;
5343;SDS011;2694;48.950;8.970;2022-11-15T01:30:23;12.70;;;6.18;;
5343;SDS011;2694;48.950;8.970;2022-11-15T01:32:51;11.98;;;6.60;;
5343;SDS011;2694;48.950;8.970;2022-11-15T01:35:18;8.63;;;5.30;;
5343;SDS011;2694;48.950;8.970;2022-11-15T01:37:45;9.05;;;5.15;;
5343;SDS011;2694;48.950;8.970;2022-11-15T01:40:13;7.07;;;5.25;;
5343;SDS011;2694;48.950;8.970;2022-11-15T01:42:41;12.65;;;5.25;;
5343;SDS011;2694;48.950;8.970;2022-11-15T01:45:09;8.43;;;5.05;;
5343;SDS011;2694;48.950;8.970;2022-11-15T01:47:42;8.73;;;5.00;;
5343;SDS011;2694;48.950;8.970;2022-11-15T01:50:14;8.60;;;4.82;;
5343;SDS011;2694;48.950;8.970;2022-11-15T01:52:44;7.13;;;4.47;;
5343;SDS011;2694;48.950;8.970;2022-11-15T01:55:13;9.60;;;5.85;;
5343;SDS011;2694;48.950;8.970;2022-11-15T01:57:43;8.95;;;4.60;;
5343;SDS011;2694;48.950;8.970;2022-11-15T02:00:13;7.40;;;4.40;;
5343;SDS011;2694;48.950;8.970;2022-11-15T02:02:43;9.07;;;5.30;;
5343;SDS011;2694;48.950;8.970;2022-11-15T02:05:12;14.15;;;7.35;;
5343;SDS011;2694;48.950;8.970;2022-11-15T02:07:39;16.40;;;7.67;;
5343;SDS011;2694;48.950;8.970;2022-11-15T02:10:08;10.30;;;6.45;;
5343;SDS011;2694;48.950;8.970;2022-11-15T02:12:36;8.18;;;4.85;;
5343;SDS011;2694;48.950;8.970;2022-11-15T02:15:05;10.13;;;5.55;;
5343;SDS011;2694;48.950;8.970;2022-11-15T02:17:38;7.88;;;4.70;;
5343;SDS011;2694;48.950;8.970;2022-11-15T02:20:30;7.75;;;4.55;;
5343;SDS011;2694;48.950;8.970;2022-11-15T02:23:27;9.02;;;5.00;;
5343;SDS011;2694;48.950;8.970;2022-11-15T02:26:14;6.43;;;3.92;;
5343;SDS011;2694;48.950;8.970;2022-11-15T02:29:04;7.00;;;4.28;;
5343;SDS011;2694;48.950;8.970;2022-11-15T02:31:39;6.15;;;3.85;;
5343;SDS011;2694;48.950;8.970;2022-11-15T02:34:15;8.50;;;4.30;;
5343;SDS011;2694;48.950;8.970;2022-11-15T02:36:54;7.57;;;4.20;;
5343;SDS011;2694;48.950;8.970;2022-11-15T02:39:33;5.55;;;3.42;;
5343;SDS011;2694;48.950;8.970;2022-11-15T02:42:07;6.43;;;4.10;;
5343;SDS011;2694;48.950;8.970;2022-11-15T02:44:57;6.38;;;2.97;;
5343;SDS011;2694;48.950;8.970;2022-11-15T02:47:28;6.73;;;3.77;;
5343;SDS011;2694;48.950;8.970;2022-11-15T02:50:00;5.88;;;3.40;;
5343;SDS011;2694;48.950;8.970;2022-11-15T02:52:33;4.50;;;3.00;;
5343;SDS011;2694;48.950;8.970;2022-11-15T02:55:00;5.93;;;2.90;;
5343;SDS011;2694;48.950;8.970;2022-11-15T02:57:31;9.85;;;3.75;;
5343;SDS011;2694;48.950;8.970;2022-11-15T03:00:10;5.45;;;3.17;;
5343;SDS011;2694;48.950;8.970;2022-11-15T03:02:45;4.47;;;3.10;;
5343;SDS011;2694;48.950;8.970;2022-11-15T03:05:25;5.50;;;3.00;;
5343;SDS011;2694;48.950;8.970;2022-11-15T03:08:00;7.40;;;3.00;;
5343;SDS011;2694;48.950;8.970;2022-11-15T03:10:36;5.65;;;3.10;;
5343;SDS011;2694;48.950;8.970;2022-11-15T03:13:13;4.18;;;3.00;;
5343;SDS011;2694;48.950;8.970;2022-11-15T03:15:49;2.85;;;2.55;;
5343;SDS011;2694;48.950;8.970;2022-11-15T03:18:22;6.10;;;2.90;;
5343;SDS011;2694;48.950;8.970;2022-11-15T03:20:54;5.68;;;3.28;;
5343;SDS011;2694;48.950;8.970;2022-11-15T03:23:23;7.07;;;2.92;;
5343;SDS011;2694;48.950;8.970;2022-11-15T03:25:54;5.03;;;3.15;;
5343;SDS011;2694;48.950;8.970;2022-11-15T03:28:23;5.28;;;3.10;;
5343;SDS011;2694;48.950;8.970;2022-11-15T03:30:57;5.75;;;3.10;;
5343;SDS011;2694;48.950;8.970;2022-11-15T03:33:49;5.80;;;3.20;;
5343;SDS011;2694;48.950;8.970;2022-11-15T03:36:19;4.70;;;2.60;;
5343;SDS011;2694;48.950;8.970;2022-11-15T03:38:50;4.00;;;2.90;;
5343;SDS011;2694;48.950;8.970;2022-11-15T03:41:21;5.80;;;3.15;;
5343;SDS011;2694;48.950;8.970;2022-11-15T03:43:52;5.15;;;2.65;;
5343;SDS011;2694;48.950;8.970;2022-11-15T03:46:23;3.70;;;2.90;;
5343;SDS011;2694;48.950;8.970;2022-11-15T03:48:59;6.63;;;3.50;;
5343;SDS011;2694;48.950;8.970;2022-11-15T03:51:32;4.63;;;2.90;;
5343;SDS011;2694;48.950;8.970;2022-11-15T03:54:01;3.55;;;2.65;;
5343;SDS011;2694;48.950;8.970;2022-11-15T03:56:30;7.23;;;3.17;;
5343;SDS011;2694;48.950;8.970;2022-11-15T03:58:57;5.30;;;3.03;;
5343;SDS011;2694;48.950;8.970;2022-11-15T04:01:25;4.07;;;2.90;;
5343;SDS011;2694;48.950;8.970;2022-11-15T04:03:52;7.63;;;2.88;;
5343;SDS011;2694;48.950;8.970;2022-11-15T04:06:21;3.40;;;2.60;;
5343;SDS011;2694;48.950;8.970;2022-11-15T04:08:49;3.63;;;2.50;;
5343;SDS011;2694;48.950;8.970;2022-11-15T04:11:16;7.70;;;3.28;;
5343;SDS011;2694;48.950;8.970;2022-11-15T04:13:43;5.20;;;3.00;;
5343;SDS011;2694;48.950;8.970;2022-11-15T04:16:10;5.38;;;3.00;;
5343;SDS011;2694;48.950;8.970;2022-11-15T04:18:38;5.70;;;3.10;;
5343;SDS011;2694;48.950;8.970;2022-11-15T04:21:05;4.10;;;2.58;;
5343;SDS011;2694;48.950;8.970;2022-11-15T04:23:52;4.93;;;2.75;;
5343;SDS011;2694;48.950;8.970;2022-11-15T04:26:36;4.70;;;2.67;;
5343;SDS011;2694;48.950;8.970;2022-11-15T04:29:04;3.70;;;2.72;;
5343;SDS011;2694;48.950;8.970;2022-11-15T04:31:48;6.20;;;3.42;;
5343;SDS011;2694;48.950;8.970;2022-11-15T04:34:15;8.10;;;3.73;;
5343;SDS011;2694;48.950;8.970;2022-11-15T04:36:42;4.22;;;2.80;;
5343;SDS011;2694;48.950;8.970;2022-11-15T04:39:29;3.93;;;3.07;;
5343;SDS011;2694;48.950;8.970;2022-11-15T04:41:56;5.70;;;3.00;;
5343;SDS011;2694;48.950;8.970;2022-11-15T04:44:23;6.43;;;3.33;;
5343;SDS011;2694;48.950;8.970;2022-11-15T04:46:51;4.68;;;3.13;;
5343;SDS011;2694;48.950;8.970;2022-11-15T04:49:18;5.40;;;2.63;;
5343;SDS011;2694;48.950;8.970;2022-11-15T04:51:45;4.45;;;3.08;;
5343;SDS011;2694;48.950;8.970;2022-11-15T04:54:13;4.23;;;2.80;;
5343;SDS011;2694;48.950;8.970;2022-11-15T04:56:41;3.92;;;2.88;;
5343;SDS011;2694;48.950;8.970;2022-11-15T04:59:09;5.10;;;2.40;;
5343;SDS011;2694;48.950;8.970;2022-11-15T05:01:36;7.30;;;3.55;;
5343;SDS011;2694;48.950;8.970;2022-11-15T05:04:03;6.47;;;4.10;;
5343;SDS011;2694;48.950;8.970;2022-11-15T05:06:45;4.68;;;3.58;;
5343;SDS011;2694;48.950;8.970;2022-11-15T05:09:17;5.60;;;3.60;;
5343;SDS011;2694;48.950;8.970;2022-11-15T05:11:46;5.63;;;3.15;;
5343;SDS011;2694;48.950;8.970;2022-11-15T05:14:14;8.50;;;4.20;;
5343;SDS011;2694;48.950;8.970;2022-11-15T05:16:42;5.10;;;3.08;;
5343;SDS011;2694;48.950;8.970;2022-11-15T05:19:10;4.78;;;3.00;;
5343;SDS011;2694;48.950;8.970;2022-11-15T05:21:37;4.78;;;2.70;;
5343;SDS011;2694;48.950;8.970;2022-11-15T05:24:05;3.72;;;2.80;;
5343;SDS011;2694;48.950;8.970;2022-11-15T05:26:33;4.60;;;2.95;;
5343;SDS011;2694;48.950;8.970;2022-11-15T05:29:02;6.65;;;2.75;;
5343;SDS011;2694;48.950;8.970;2022-11-15T05:31:29;4.60;;;3.03;;
5343;SDS011;2694;48.950;8.970;2022-11-15T05:33:57;4.47;;;2.70;;
5343;SDS011;2694;48.950;8.970;2022-11-15T05:36:27;4.97;;;2.88;;
5343;SDS011;2694;48.950;8.970;2022-11-15T05:38:58;5.13;;;2.70;;
5343;SDS011;2694;48.950;8.970;2022-11-15T05:41:26;7.97;;;3.73;;
5343;SDS011;2694;48.950;8.970;2022-11-15T05:43:58;5.72;;;3.38;;
5343;SDS011;2694;48.950;8.970;2022-11-15T05:46:29;5.93;;;2.90;;
5343;SDS011;2694;48.950;8.970;2022-11-15T05:48:57;4.07;;;2.30;;
5343;SDS011;2694;48.950;8.970;2022-11-15T05:51:25;5.43;;;2.63;;
5343;SDS011;2694;48.950;8.970;2022-11-15T05:53:55;4.70;;;2.80;;
5343;SDS011;2694;48.950;8.970;2022-11-15T05:56:24;5.65;;;2.78;;
5343;SDS011;2694;48.950;8.970;2022-11-15T05:58:52;4.72;;;2.30;;
5343;SDS011;2694;48.950;8.970;2022-11-15T06:01:21;3.15;;;2.40;;
5343;SDS011;2694;48.950;8.970;2022-11-15T06:03:51;4.03;;;2.60;;
5343;SDS011;2694;48.950;8.970;2022-11-15T06:06:18;6.30;;;3.40;;
5343;SDS011;2694;48.950;8.970;2022-11-15T06:08:45;4.47;;;2.90;;
5343;SDS011;2694;48.950;8.970;2022-11-15T06:11:13;7.28;;;3.03;;
5343;SDS011;2694;48.950;8.970;2022-11-15T06:13:40;8.53;;;3.10;;
5343;SDS011;2694;48.950;8.970;2022-11-15T06:16:07;6.38;;;2.72;;
5343;SDS011;2694;48.950;8.970;2022-11-15T06:18:35;3.90;;;2.40;;
5343;SDS011;2694;48.950;8.970;2022-11-15T06:21:05;4.33;;;2.47;;
5343;SDS011;2694;48.950;8.970;2022-11-15T06:23:32;4.30;;;2.70;;
5343;SDS011;2694;48.950;8.970;2022-11-15T06:26:01;4.43;;;2.80;;
5343;SDS011;2694;48.950;8.970;2022-11-15T06:28:30;3.13;;;2.30;;
5343;SDS011;2694;48.950;8.970;2022-11-15T06:31:02;7.45;;;3.00;;
5343;SDS011;2694;48.950;8.970;2022-11-15T06:33:30;6.18;;;2.60;;
5343;SDS011;2694;48.950;8.970;2022-11-15T06:36:00;3.20;;;2.42;;
5343;SDS011;2694;48.950;8.970;2022-11-15T06:38:29;6.50;;;3.07;;
5343;SDS011;2694;48.950;8.970;2022-11-15T06:41:00;3.88;;;2.80;;
5343;SDS011;2694;48.950;8.970;2022-11-15T06:43:29;5.88;;;3.17;;
5343;SDS011;2694;48.950;8.970;2022-11-15T06:45:57;6.10;;;3.40;;
5343;SDS011;2694;48.950;8.970;2022-11-15T06:48:25;5.10;;;3.03;;
5343;SDS011;2694;48.950;8.970;2022-11-15T06:50:52;5.65;;;3.15;;
5343;SDS011;2694;48.950;8.970;2022-11-15T06:53:20;10.50;;;3.40;;
5343;SDS011;2694;48.950;8.970;2022-11-15T06:55:49;8.05;;;2.90;;
5343;SDS011;2694;48.950;8.970;2022-11-15T06:58:16;15.98;;;3.50;;
5343;SDS011;2694;48.950;8.970;2022-11-15T07:00:44;8.18;;;3.67;;
5343;SDS011;2694;48.950;8.970;2022-11-15T07:03:15;5.30;;;3.20;;
5343;SDS011;2694;48.950;8.970;2022-11-15T07:05:50;7.22;;;3.63;;
5343;SDS011;2694;48.950;8.970;2022-11-15T07:08:20;6.00;;;3.73;;
5343;SDS011;2694;48.950;8.970;2022-11-15T07:10:47;6.15;;;3.70;;
5343;SDS011;2694;48.950;8.970;2022-11-15T07:13:16;8.88;;;4.10;;
5343;SDS011;2694;48.950;8.970;2022-11-15T07:15:43;6.15;;;3.58;;
5343;SDS011;2694;48.950;8.970;2022-11-15T07:18:10;6.80;;;3.80;;
5343;SDS011;2694;48.950;8.970;2022-11-15T07:20:38;4.80;;;3.10;;
5343;SDS011;2694;48.950;8.970;2022-11-15T07:23:05;5.65;;;3.30;;
5343;SDS011;2694;48.950;8.970;2022-11-15T07:25:33;5.00;;;3.70;;
5343;SDS011;2694;48.950;8.970;2022-11-15T07:28:02;4.82;;;3.08;;
5343;SDS011;2694;48.950;8.970;2022-11-15T07:30:30;9.05;;;4.00;;
5343;SDS011;2694;48.950;8.970;2022-11-15T07:32:58;6.80;;;2.80;;
5343;SDS011;2694;48.950;8.970;2022-11-15T07:35:27;6.88;;;2.90;;
5343;SDS011;2694;48.950;8.970;2022-11-15T07:37:55;7.20;;;2.80;;
5343;SDS011;2694;48.950;8.970;2022-11-15T07:40:23;6.65;;;3.00;;
5343;SDS011;2694;48.950;8.970;2022-11-15T07:42:50;5.23;;;3.00;;
5343;SDS011;2694;48.950;8.970;2022-11-15T07:45:27;5.53;;;3.10;;
5343;SDS011;2694;48.950;8.970;2022-11-15T07:47:55;6.05;;;3.35;;
5343;SDS011;2694;48.950;8.970;2022-11-15T07:50:23;6.55;;;3.67;;
5343;SDS011;2694;48.950;8.970;2022-11-15T07:52:53;5.38;;;3.58;;
5343;SDS011;2694;48.950;8.970;2022-11-15T07:55:21;8.52;;;3.70;;
5343;SDS011;2694;48.950;8.970;2022-11-15T07:57:49;5.05;;;2.90;;
5343;SDS011;2694;48.950;8.970;2022-11-15T08:00:17;6.82;;;3.00;;
5343;SDS011;2694;48.950;8.970;2022-11-15T08:02:46;9.70;;;3.30;;
5343;SDS011;2694;48.950;8.970;2022-11-15T08:05:13;6.63;;;3.75;;
5343;SDS011;2694;48.950;8.970;2022-11-15T08:07:41;3.60;;;2.80;;
5343;SDS011;2694;48.950;8.970;2022-11-15T08:10:08;5.68;;;3.15;;
5343;SDS011;2694;48.950;8.970;2022-11-15T08:12:37;5.70;;;2.90;;
5343;SDS011;2694;48.950;8.970;2022-11-15T08:15:04;5.13;;;2.88;;
5343;SDS011;2694;48.950;8.970;2022-11-15T08:17:32;4.80;;;3.00;;
5343;SDS011;2694;48.950;8.970;2022-11-15T08:20:01;6.13;;;3.70;;
5343;SDS011;2694;48.950;8.970;2022-11-15T08:22:29;7.20;;;2.83;;
5343;SDS011;2694;48.950;8.970;2022-11-15T08:24:56;7.38;;;3.55;;
5343;SDS011;2694;48.950;8.970;2022-11-15T08:27:23;7.35;;;3.30;;
5343;SDS011;2694;48.950;8.970;2022-11-15T08:29:50;6.20;;;3.60;;
5343;SDS011;2694;48.950;8.970;2022-11-15T08:32:17;8.25;;;3.58;;
5343;SDS011;2694;48.950;8.970;2022-11-15T08:34:45;6.82;;;3.35;;
5343;SDS011;2694;48.950;8.970;2022-11-15T08:37:13;6.50;;;3.40;;
5343;SDS011;2694;48.950;8.970;2022-11-15T08:39:41;6.70;;;3.58;;
5343;SDS011;2694;48.950;8.970;2022-11-15T08:42:08;9.93;;;3.80;;
5343;SDS011;2694;48.950;8.970;2022-11-15T08:44:35;8.10;;;4.30;;
5343;SDS011;2694;48.950;8.970;2022-11-15T08:47:03;4.80;;;3.30;;
5343;SDS011;2694;48.950;8.970;2022-11-15T08:49:30;6.78;;;3.50;;
5343;SDS011;2694;48.950;8.970;2022-11-15T08:51:57;7.55;;;3.15;;
5343;SDS011;2694;48.950;8.970;2022-11-15T08:54:27;8.60;;;3.78;;
5343;SDS011;2694;48.950;8.970;2022-11-15T08:56:54;7.78;;;2.90;;
5343;SDS011;2694;48.950;8.970;2022-11-15T08:59:22;8.68;;;3.15;;
5343;SDS011;2694;48.950;8.970;2022-11-15T09:01:49;6.43;;;3.35;;
5343;SDS011;2694;48.950;8.970;2022-11-15T09:04:17;6.50;;;3.45;;
5343;SDS011;2694;48.950;8.970;2022-11-15T09:06:44;5.97;;;3.38;;
5343;SDS011;2694;48.950;8.970;2022-11-15T09:09:11;7.05;;;3.30;;
5343;SDS011;2694;48.950;8.970;2022-11-15T09:11:39;5.75;;;3.15;;
5343;SDS011;2694;48.950;8.970;2022-11-15T09:14:07;7.70;;;3.60;;
5343;SDS011;2694;48.950;8.970;2022-11-15T09:16:37;9.63;;;3.80;;
5343;SDS011;2694;48.950;8.970;2022-11-15T09:19:04;5.35;;;3.00;;
5343;SDS011;2694;48.950;8.970;2022-11-15T09:21:32;7.95;;;3.15;;
5343;SDS011;2694;48.950;8.970;2022-11-15T09:24:00;7.35;;;3.50;;
5343;SDS011;2694;48.950;8.970;2022-11-15T09:26:29;6.05;;;3.22;;
5343;SDS011;2694;48.950;8.970;2022-11-15T09:28:58;6.75;;;3.25;;
5343;SDS011;2694;48.950;8.970;2022-11-15T09:31:26;6.63;;;2.70;;
5343;SDS011;2694;48.950;8.970;2022-11-15T09:33:54;7.57;;;3.50;;
5343;SDS011;2694;48.950;8.970;2022-11-15T09:36:21;7.10;;;3.30;;
5343;SDS011;2694;48.950;8.970;2022-11-15T09:38:49;7.30;;;3.30;;
5343;SDS011;2694;48.950;8.970;2022-11-15T09:41:20;7.35;;;3.22;;
5343;SDS011;2694;48.950;8.970;2022-11-15T09:44:14;9.77;;;3.60;;
5343;SDS011;2694;48.950;8.970;2022-11-15T09:46:55;6.53;;;3.92;;
5343;SDS011;2694;48.950;8.970;2022-11-15T09:49:31;5.80;;;2.97;;
5343;SDS011;2694;48.950;8.970;2022-11-15T09:51:59;7.20;;;2.90;;
5343;SDS011;2694;48.950;8.970;2022-11-15T09:54:28;8.13;;;3.17;;
5343;SDS011;2694;48.950;8.970;2022-11-15T09:57:02;7.03;;;5.00;;
5343;SDS011;2694;48.950;8.970;2022-11-15T09:59:40;8.17;;;3.70;;
5343;SDS011;2694;48.950;8.970;2022-11-15T10:02:22;7.55;;;3.65;;
5343;SDS011;2694;48.950;8.970;2022-11-15T10:04:59;10.43;;;3.40;;
5343;SDS011;2694;48.950;8.970;2022-11-15T10:07:30;7.63;;;3.20;;
5343;SDS011;2694;48.950;8.970;2022-11-15T10:10:09;6.93;;;3.00;;
5343;SDS011;2694;48.950;8.970;2022-11-15T10:12:48;5.72;;;2.97;;
5343;SDS011;2694;48.950;8.970;2022-11-15T10:15:19;4.32;;;2.88;;
5343;SDS011;2694;48.950;8.970;2022-11-15T10:18:08;8.23;;;3.10;;
5343;SDS011;2694;48.950;8.970;2022-11-15T10:20:44;7.07;;;3.25;;
5343;SDS011;2694;48.950;8.970;2022-11-15T10:23:15;7.70;;;3.00;;
5343;SDS011;2694;48.950;8.970;2022-11-15T10:25:44;9.43;;;3.30;;
5343;SDS011;2694;48.950;8.970;2022-11-15T10:28:14;7.70;;;3.03;;
5343;SDS011;2694;48.950;8.970;2022-11-15T10:30:46;6.88;;;3.17;;
5343;SDS011;2694;48.950;8.970;2022-11-15T10:33:17;5.82;;;3.10;;
5343;SDS011;2694;48.950;8.970;2022-11-15T10:35:49;6.53;;;3.22;;
5343;SDS011;2694;48.950;8.970;2022-11-15T10:38:54;6.20;;;2.85;;
5343;SDS011;2694;48.950;8.970;2022-11-15T10:41:29;6.80;;;2.50;;
5343;SDS011;2694;48.950;8.970;2022-11-15T10:44:11;10.23;;;3.93;;
5343;SDS011;2694;48.950;8.970;2022-11-15T10:46:50;9.18;;;3.88;;
5343;SDS011;2694;48.950;8.970;2022-11-15T10:49:32;15.77;;;3.80;;
5343;SDS011;2694;48.950;8.970;2022-11-15T10:52:01;12.82;;;3.20;;
5343;SDS011;2694;48.950;8.970;2022-11-15T10:54:41;6.63;;;3.15;;
5343;SDS011;2694;48.950;8.970;2022-11-15T10:57:12;6.70;;;2.83;;
5343;SDS011;2694;48.950;8.970;2022-11-15T10:59:42;8.50;;;3.00;;
5343;SDS011;2694;48.950;8.970;2022-11-15T11:05:25;5.07;;;2.67;;
5343;SDS011;2694;48.950;8.970;2022-11-15T11:07:55;3.30;;;2.35;;
5343;SDS011;2694;48.950;8.970;2022-11-15T11:10:25;8.67;;;2.80;;
5343;SDS011;2694;48.950;8.970;2022-11-15T11:12:52;6.53;;;3.50;;
5343;SDS011;2694;48.950;8.970;2022-11-15T11:15:19;7.28;;;3.10;;
5343;SDS011;2694;48.950;8.970;2022-11-15T11:18:08;10.48;;;3.10;;
5343;SDS011;2694;48.950;8.970;2022-11-15T11:20:41;10.32;;;3.35;;
5343;SDS011;2694;48.950;8.970;2022-11-15T11:23:19;5.20;;;3.10;;
5343;SDS011;2694;48.950;8.970;2022-11-15T11:26:07;9.18;;;3.80;;
5343;SDS011;2694;48.950;8.970;2022-11-15T11:28:46;6.15;;;3.58;;
5343;SDS011;2694;48.950;8.970;2022-11-15T11:31:23;7.35;;;3.50;;
5343;SDS011;2694;48.950;8.970;2022-11-15T11:34:02;5.40;;;3.00;;
5343;SDS011;2694;48.950;8.970;2022-11-15T11:36:39;6.45;;;3.15;;
5343;SDS011;2694;48.950;8.970;2022-11-15T11:39:17;5.45;;;3.10;;
5343;SDS011;2694;48.950;8.970;2022-11-15T11:41:56;8.23;;;3.38;;
5343;SDS011;2694;48.950;8.970;2022-11-15T11:44:32;7.13;;;3.47;;
5343;SDS011;2694;48.950;8.970;2022-11-15T11:47:06;8.27;;;3.40;;
5343;SDS011;2694;48.950;8.970;2022-11-15T11:49:41;9.10;;;4.80;;
5343;SDS011;2694;48.950;8.970;2022-11-15T11:52:14;7.80;;;4.32;;
5343;SDS011;2694;48.950;8.970;2022-11-15T11:54:53;6.00;;;3.67;;
5343;SDS011;2694;48.950;8.970;2022-11-15T11:57:29;7.63;;;3.28;;
5343;SDS011;2694;48.950;8.970;2022-11-15T12:00:04;6.07;;;3.30;;
5343;SDS011;2694;48.950;8.970;2022-11-15T12:02:43;6.93;;;3.33;;
5343;SDS011;2694;48.950;8.970;2022-11-15T12:05:18;8.75;;;3.45;;
5343;SDS011;2694;48.950;8.970;2022-11-15T12:07:54;5.30;;;3.60;;
5343;SDS011;2694;48.950;8.970;2022-11-15T12:10:29;7.43;;;3.72;;
5343;SDS011;2694;48.950;8.970;2022-11-15T12:13:00;6.40;;;3.35;;
5343;SDS011;2694;48.950;8.970;2022-11-15T12:15:31;7.17;;;3.77;;
5343;SDS011;2694;48.950;8.970;2022-11-15T12:18:03;8.43;;;3.35;;
5343;SDS011;2694;48.950;8.970;2022-11-15T12:20:34;7.57;;;3.40;;
5343;SDS011;2694;48.950;8.970;2022-11-15T12:23:05;5.68;;;3.83;;
5343;SDS011;2694;48.950;8.970;2022-11-15T12:25:40;7.63;;;3.50;;
5343;SDS011;2694;48.950;8.970;2022-11-15T12:28:13;5.80;;;3.22;;
5343;SDS011;2694;48.950;8.970;2022-11-15T12:30:44;6.47;;;3.40;;
5343;SDS011;2694;48.950;8.970;2022-11-15T12:33:31;4.63;;;3.20;;
5343;SDS011;2694;48.950;8.970;2022-11-15T12:36:03;7.22;;;3.72;;
5343;SDS011;2694;48.950;8.970;2022-11-15T12:41:22;10.57;;;3.60;;
5343;SDS011;2694;48.950;8.970;2022-11-15T12:43:51;9.50;;;3.85;;
5343;SDS011;2694;48.950;8.970;2022-11-15T12:46:22;12.27;;;4.32;;
5343;SDS011;2694;48.950;8.970;2022-11-15T12:52:10;10.45;;;4.32;;
5343;SDS011;2694;48.950;8.970;2022-11-15T12:54:57;9.50;;;3.67;;
5343;SDS011;2694;48.950;8.970;2022-11-15T12:57:48;12.32;;;3.72;;
5343;SDS011;2694;48.950;8.970;2022-11-15T13:06:08;8.20;;;3.40;;
5343;SDS011;2694;48.950;8.970;2022-11-15T13:08:52;5.68;;;2.88;;
5343;SDS011;2694;48.950;8.970;2022-11-15T13:20:17;9.18;;;3.97;;
5343;SDS011;2694;48.950;8.970;2022-11-15T13:22:47;10.00;;;4.07;;
5343;SDS011;2694;48.950;8.970;2022-11-15T13:25:42;10.25;;;4.30;;
5343;SDS011;2694;48.950;8.970;2022-11-15T13:28:24;10.25;;;4.10;;
5343;SDS011;2694;48.950;8.970;2022-11-15T13:30:58;12.27;;;5.45;;
5343;SDS011;2694;48.950;8.970;2022-11-15T13:33:29;7.63;;;4.60;;
5343;SDS011;2694;48.950;8.970;2022-11-15T13:35:58;9.82;;;4.60;;
5343;SDS011;2694;48.950;8.970;2022-11-15T13:38:29;8.80;;;4.18;;
5343;SDS011;2694;48.950;8.970;2022-11-15T13:41:10;9.18;;;4.05;;
5343;SDS011;2694;48.950;8.970;2022-11-15T13:43:44;5.22;;;3.80;;
5343;SDS011;2694;48.950;8.970;2022-11-15T13:46:12;11.18;;;4.10;;
5343;SDS011;2694;48.950;8.970;2022-11-15T13:48:42;14.88;;;4.30;;
5343;SDS011;2694;48.950;8.970;2022-11-15T13:51:13;12.05;;;5.35;;
5343;SDS011;2694;48.950;8.970;2022-11-15T13:53:46;13.75;;;5.40;;
5343;SDS011;2694;48.950;8.970;2022-11-15T13:56:18;16.77;;;6.17;;
5343;SDS011;2694;48.950;8.970;2022-11-15T13:58:47;15.77;;;5.25;;
5343;SDS011;2694;48.950;8.970;2022-11-15T14:01:15;20.20;;;6.60;;
5343;SDS011;2694;48.950;8.970;2022-11-15T14:03:47;20.33;;;5.97;;
5343;SDS011;2694;48.950;8.970;2022-11-15T14:06:19;18.38;;;5.47;;
5343;SDS011;2694;48.950;8.970;2022-11-15T14:11:55;10.77;;;4.70;;
5343;SDS011;2694;48.950;8.970;2022-11-15T14:14:23;10.20;;;4.35;;
5343;SDS011;2694;48.950;8.970;2022-11-15T14:16:51;9.93;;;4.07;;
5343;SDS011;2694;48.950;8.970;2022-11-15T14:19:36;7.63;;;4.10;;
5343;SDS011;2694;48.950;8.970;2022-11-15T14:22:08;10.48;;;4.35;;
5343;SDS011;2694;48.950;8.970;2022-11-15T14:24:41;11.52;;;4.50;;
5343;SDS011;2694;48.950;8.970;2022-11-15T14:27:19;7.80;;;4.60;;
5343;SDS011;2694;48.950;8.970;2022-11-15T14:29:50;7.30;;;3.80;;
5343;SDS011;2694;48.950;8.970;2022-11-15T14:32:18;10.15;;;4.70;;
5343;SDS011;2694;48.950;8.970;2022-11-15T14:34:48;10.50;;;4.25;;
5343;SDS011;2694;48.950;8.970;2022-11-15T14:37:21;6.70;;;3.60;;
5343;SDS011;2694;48.950;8.970;2022-11-15T14:39:50;12.40;;;4.63;;
5343;SDS011;2694;48.950;8.970;2022-11-15T14:42:19;7.57;;;4.28;;
5343;SDS011;2694;48.950;8.970;2022-11-15T14:44:47;7.50;;;3.40;;
5343;SDS011;2694;48.950;8.970;2022-11-15T14:47:15;10.20;;;4.15;;
5343;SDS011;2694;48.950;8.970;2022-11-15T14:49:42;12.57;;;4.38;;
5343;SDS011;2694;48.950;8.970;2022-11-15T14:52:23;11.15;;;5.50;;
5343;SDS011;2694;48.950;8.970;2022-11-15T14:54:52;7.25;;;4.60;;
5343;SDS011;2694;48.950;8.970;2022-11-15T14:57:22;14.45;;;4.60;;
5343;SDS011;2694;48.950;8.970;2022-11-15T14:59:49;8.40;;;4.10;;
5343;SDS011;2694;48.950;8.970;2022-11-15T15:02:18;9.80;;;4.45;;
5343;SDS011;2694;48.950;8.970;2022-11-15T15:04:46;17.10;;;4.40;;
5343;SDS011;2694;48.950;8.970;2022-11-15T15:07:14;8.82;;;3.85;;
5343;SDS011;2694;48.950;8.970;2022-11-15T15:09:42;10.52;;;4.00;;
5343;SDS011;2694;48.950;8.970;2022-11-15T15:12:12;9.40;;;4.25;;
5343;SDS011;2694;48.950;8.970;2022-11-15T15:14:46;8.70;;;4.03;;
5343;SDS011;2694;48.950;8.970;2022-11-15T15:17:15;9.98;;;4.60;;
5343;SDS011;2694;48.950;8.970;2022-11-15T15:19:42;7.40;;;4.00;;
5343;SDS011;2694;48.950;8.970;2022-11-15T15:22:11;7.03;;;4.13;;
5343;SDS011;2694;48.950;8.970;2022-11-15T15:24:41;9.68;;;4.55;;
5343;SDS011;2694;48.950;8.970;2022-11-15T15:27:09;12.55;;;4.78;;
5343;SDS011;2694;48.950;8.970;2022-11-15T15:29:39;12.70;;;4.40;;
5343;SDS011;2694;48.950;8.970;2022-11-15T15:32:08;7.60;;;4.20;;
5343;SDS011;2694;48.950;8.970;2022-11-15T15:34:36;8.30;;;4.13;;
5343;SDS011;2694;48.950;8.970;2022-11-15T15:37:08;8.38;;;4.43;;
5343;SDS011;2694;48.950;8.970;2022-11-15T15:39:40;13.50;;;4.80;;
5343;SDS011;2694;48.950;8.970;2022-11-15T15:42:07;12.52;;;4.50;;
5343;SDS011;2694;48.950;8.970;2022-11-15T15:44:37;13.75;;;4.90;;
5343;SDS011;2694;48.950;8.970;2022-11-15T15:47:09;10.70;;;4.90;;
5343;SDS011;2694;48.950;8.970;2022-11-15T15:49:37;11.82;;;4.88;;
5343;SDS011;2694;48.950;8.970;2022-11-15T15:52:05;9.88;;;6.00;;
5343;SDS011;2694;48.950;8.970;2022-11-15T15:54:32;12.98;;;5.90;;
5343;SDS011;2694;48.950;8.970;2022-11-15T15:56:59;10.95;;;4.97;;
5343;SDS011;2694;48.950;8.970;2022-11-15T15:59:26;11.07;;;5.15;;
5343;SDS011;2694;48.950;8.970;2022-11-15T16:01:53;9.30;;;4.70;;
5343;SDS011;2694;48.950;8.970;2022-11-15T16:04:21;10.77;;;4.80;;